Wetterdaten: Woche 11.06.18 - 17.06.18 (KW24)
Datum Zeit Temp. A. Feuchte A. Luftdruck Regen Wind Richtung Taupunkt Windchill Windben
11.06.2018 00:00 21,1 C 81 % 1008,3 hPa 0,0 l/m 0,0 km/h N 17,7 C 21,1 C 0,8 km/h
11.06.2018 01:00 20,3 C 81 % 1008,7 hPa 0,0 l/m 0,0 km/h N 16,9 C 20,3 C 0,0 km/h
11.06.2018 02:00 19,7 C 81 % 1008,7 hPa 0,0 l/m 0,0 km/h N 16,3 C 19,7 C 0,4 km/h
11.06.2018 03:00 19,4 C 81 % 1008,8 hPa 0,0 l/m 0,0 km/h N 16,1 C 19,4 C 0,4 km/h
11.06.2018 04:00 18,8 C 82 % 1008,7 hPa 0,0 l/m 0,0 km/h N 15,6 C 18,8 C 0,4 km/h
11.06.2018 05:00 18,3 C 82 % 1009,0 hPa 0,0 l/m 0,0 km/h N 15,1 C 18,3 C 0,0 km/h
11.06.2018 06:00 18,9 C 82 % 1009,5 hPa 0,0 l/m 0,0 km/h N 15,8 C 18,9 C 0,8 km/h
11.06.2018 07:00 21,0 C 80 % 1009,8 hPa 0,0 l/m 1,2 km/h N 17,4 C 21,0 C 5,6 km/h
11.06.2018 08:00 24,1 C 71 % 1009,9 hPa 0,0 l/m 3,0 km/h N 18,4 C 24,1 C 11,3 km/h
11.06.2018 09:00 25,9 C 64 % 1009,5 hPa 0,0 l/m 2,0 km/h N 18,5 C 25,9 C 9,3 km/h
11.06.2018 10:00 27,5 C 61 % 1009,2 hPa 0,0 l/m 0,9 km/h N 19,1 C 27,5 C 6,8 km/h
11.06.2018 11:00 29,0 C 56 % 1008,9 hPa 0,0 l/m 0,9 km/h N 19,3 C 29,0 C 6,4 km/h
11.06.2018 12:00 29,3 C 53 % 1009,0 hPa 0,0 l/m 1,5 km/h N 18,6 C 29,3 C 8,4 km/h
11.06.2018 13:00 29,8 C 53 % 1008,7 hPa 0,0 l/m 2,5 km/h N 19,0 C 29,8 C 11,3 km/h
11.06.2018 14:00 30,5 C 50 % 1008,0 hPa 0,0 l/m 2,3 km/h N 18,7 C 30,5 C 12,5 km/h
11.06.2018 15:00 30,0 C 51 % 1007,4 hPa 0,0 l/m 0,3 km/h N 18,6 C 30,0 C 4,8 km/h
11.06.2018 16:00 29,9 C 53 % 1007,1 hPa 0,0 l/m 0,9 km/h N 19,1 C 29,9 C 6,8 km/h
11.06.2018 17:00 29,5 C 53 % 1006,5 hPa 0,0 l/m 0,4 km/h N 19,0 C 29,5 C 4,0 km/h
11.06.2018 18:00 30,1 C 51 % 1005,8 hPa 0,0 l/m 0,4 km/h N 18,9 C 30,1 C 6,8 km/h
11.06.2018 19:00 29,1 C 56 % 1005,4 hPa 0,0 l/m 0,3 km/h N 19,3 C 29,1 C 4,0 km/h
11.06.2018 20:00 27,5 C 61 % 1005,5 hPa 0,0 l/m 0,0 km/h N 19,3 C 27,5 C 2,8 km/h
11.06.2018 21:00 25,8 C 66 % 1005,3 hPa 0,0 l/m 0,0 km/h N 18,9 C 25,8 C 1,6 km/h
11.06.2018 22:00 24,0 C 73 % 1005,0 hPa 0,0 l/m 0,0 km/h N 18,7 C 24,0 C 0,8 km/h
11.06.2018 23:00 22,6 C 77 % 1004,5 hPa 0,0 l/m 0,0 km/h N 18,4 C 22,6 C 0,4 km/h
12.06.2018 00:00 22,5 C 78 % 1003,6 hPa 0,0 l/m 0,0 km/h N 18,5 C 22,5 C 1,2 km/h
12.06.2018 01:00 23,2 C 75 % 1003,0 hPa 0,0 l/m 0,4 km/h N 18,6 C 23,2 C 5,2 km/h
12.06.2018 02:00 23,6 C 74 % 1003,4 hPa 0,0 l/m 0,6 km/h N 18,7 C 23,6 C 8,0 km/h
12.06.2018 03:00 24,4 C 66 % 1002,9 hPa 0,0 l/m 5,7 km/h N 17,7 C 24,3 C 22,9 km/h
12.06.2018 04:00 23,9 C 66 % 1003,0 hPa 0,0 l/m 4,4 km/h N 17,2 C 23,9 C 20,1 km/h
12.06.2018 05:00 23,3 C 66 % 1003,7 hPa 0,0 l/m 0,9 km/h N 16,6 C 23,3 C 8,4 km/h
12.06.2018 06:00 23,1 C 68 % 1004,0 hPa 0,0 l/m 6,8 km/h N 16,8 C 22,7 C 24,9 km/h
12.06.2018 07:00 23,2 C 69 % 1004,4 hPa 0,0 l/m 9,5 km/h N 17,1 C 22,3 C 29,4 km/h
12.06.2018 08:00 23,7 C 67 % 1004,8 hPa 0,0 l/m 14,3 km/h N 17,1 C 21,9 C 36,6 km/h
12.06.2018 09:00 24,4 C 65 % 1005,1 hPa 0,0 l/m 13,1 km/h N 17,3 C 22,9 C 30,6 km/h
12.06.2018 10:00 25,4 C 62 % 1005,8 hPa 0,0 l/m 9,9 km/h N 17,5 C 24,7 C 30,2 km/h
12.06.2018 11:00 25,7 C 60 % 1006,2 hPa 0,0 l/m 7,4 km/h N 17,3 C 25,4 C 24,5 km/h
12.06.2018 12:00 27,0 C 57 % 1005,9 hPa 0,0 l/m 5,1 km/h N 17,6 C 27,0 C 20,1 km/h
12.06.2018 13:00 26,6 C 57 % 1005,5 hPa 0,0 l/m 4,4 km/h N 17,3 C 26,6 C 16,5 km/h
12.06.2018 14:00 25,6 C 60 % 1005,2 hPa 0,0 l/m 0,3 km/h N 17,2 C 25,6 C 4,4 km/h
12.06.2018 15:00 24,7 C 66 % 1005,7 hPa 0,0 l/m 0,0 km/h N 17,8 C 24,7 C 1,2 km/h
12.06.2018 16:00 23,6 C 73 % 1005,1 hPa 0,3 l/m 0,2 km/h N 18,4 C 23,6 C 4,8 km/h
12.06.2018 17:00 21,9 C 80 % 1005,1 hPa 1,8 l/m 0,5 km/h N 18,2 C 21,9 C 4,8 km/h
12.06.2018 18:00 21,1 C 81 % 1004,6 hPa 0,0 l/m 0,2 km/h N 17,7 C 21,1 C 3,6 km/h
12.06.2018 19:00 20,4 C 81 % 1005,5 hPa 1,0 l/m 0,8 km/h N 17,0 C 20,4 C 5,6 km/h
12.06.2018 20:00 19,7 C 82 % 1006,4 hPa 5,7 l/m 0,2 km/h N 16,5 C 19,7 C 2,4 km/h
12.06.2018 21:00 18,8 C 82 % 1005,2 hPa 3,6 l/m 0,3 km/h N 15,7 C 18,8 C 3,6 km/h
12.06.2018 22:00 18,2 C 82 % 1005,0 hPa 1,3 l/m 1,2 km/h N 15,0 C 18,2 C 10,1 km/h
12.06.2018 23:00 18,1 C 82 % 1005,3 hPa 0,0 l/m 0,3 km/h N 15,0 C 18,1 C 2,8 km/h
13.06.2018 00:00 17,4 C 82 % 1004,8 hPa 0,0 l/m 0,0 km/h N 14,2 C 17,4 C 0,4 km/h
13.06.2018 01:00 16,9 C 83 % 1004,7 hPa 0,0 l/m 0,0 km/h N 13,9 C 16,9 C 0,0 km/h
13.06.2018 02:00 16,8 C 83 % 1004,6 hPa 0,0 l/m 0,0 km/h N 13,9 C 16,8 C 0,0 km/h
13.06.2018 03:00 16,6 C 83 % 1004,5 hPa 0,0 l/m 0,0 km/h N 13,7 C 16,6 C 0,0 km/h
13.06.2018 04:00 16,0 C 83 % 1004,0 hPa 0,0 l/m 0,0 km/h N 13,1 C 16,0 C 0,0 km/h
13.06.2018 05:00 15,8 C 83 % 1004,0 hPa 0,0 l/m 0,0 km/h N 13,0 C 15,8 C 1,2 km/h
13.06.2018 06:00 16,2 C 83 % 1004,3 hPa 0,0 l/m 0,1 km/h N 13,3 C 16,2 C 2,0 km/h
13.06.2018 07:00 17,3 C 83 % 1004,5 hPa 0,0 l/m 1,5 km/h N 14,3 C 17,3 C 7,2 km/h
13.06.2018 08:00 18,0 C 83 % 1004,7 hPa 0,0 l/m 2,9 km/h N 15,0 C 18,0 C 8,9 km/h
13.06.2018 09:00 19,2 C 82 % 1004,3 hPa 0,0 l/m 1,8 km/h N 16,1 C 19,2 C 8,0 km/h
13.06.2018 10:00 21,0 C 77 % 1004,2 hPa 0,0 l/m 2,8 km/h N 16,9 C 21,0 C 8,8 km/h
13.06.2018 11:00 20,9 C 78 % 1004,5 hPa 0,0 l/m 5,7 km/h N 16,8 C 20,8 C 14,9 km/h
13.06.2018 12:00 22,0 C 75 % 1004,1 hPa 0,0 l/m 6,2 km/h N 17,3 C 22,0 C 17,3 km/h
13.06.2018 13:00 22,5 C 70 % 1004,0 hPa 0,0 l/m 4,9 km/h N 16,8 C 22,5 C 16,1 km/h
13.06.2018 14:00 22,6 C 71 % 1003,8 hPa 0,0 l/m 4,8 km/h N 17,0 C 22,5 C 14,1 km/h
13.06.2018 15:00 22,0 C 72 % 1003,9 hPa 0,0 l/m 7,7 km/h N 16,6 C 21,6 C 20,1 km/h
13.06.2018 16:00 21,0 C 73 % 1004,3 hPa 0,0 l/m 7,1 km/h N 15,9 C 20,6 C 20,9 km/h
13.06.2018 17:00 20,0 C 71 % 1005,1 hPa 0,0 l/m 6,9 km/h N 14,6 C 19,7 C 21,7 km/h
13.06.2018 18:00 19,6 C 69 % 1005,9 hPa 0,0 l/m 6,8 km/h N 13,8 C 19,2 C 19,8 km/h
13.06.2018 19:00 19,2 C 68 % 1006,5 hPa 0,0 l/m 7,6 km/h N 13,1 C 18,7 C 21,3 km/h
13.06.2018 20:00 18,2 C 73 % 1007,1 hPa 0,0 l/m 7,5 km/h N 13,2 C 17,7 C 22,1 km/h
13.06.2018 21:00 17,6 C 79 % 1007,8 hPa 0,0 l/m 8,6 km/h N 13,8 C 16,6 C 26,1 km/h
13.06.2018 22:00 17,3 C 80 % 1008,9 hPa 0,0 l/m 7,1 km/h N 13,7 C 16,9 C 22,9 km/h
13.06.2018 23:00 16,6 C 80 % 1009,5 hPa 0,0 l/m 7,1 km/h N 13,1 C 16,3 C 23,7 km/h
14.06.2018 00:00 16,0 C 81 % 1009,8 hPa 0,0 l/m 6,9 km/h N 12,7 C 15,6 C 20,9 km/h
14.06.2018 01:00 15,4 C 81 % 1010,0 hPa 0,0 l/m 6,7 km/h N 12,2 C 15,3 C 22,9 km/h
14.06.2018 02:00 15,1 C 81 % 1010,3 hPa 0,0 l/m 6,2 km/h N 11,9 C 15,1 C 20,9 km/h
14.06.2018 03:00 14,8 C 81 % 1010,6 hPa 0,0 l/m 7,8 km/h N 11,5 C 13,9 C 22,9 km/h
14.06.2018 04:00 14,6 C 80 % 1010,8 hPa 0,0 l/m 6,7 km/h N 11,2 C 14,4 C 22,9 km/h
14.06.2018 05:00 14,6 C 80 % 1011,3 hPa 0,0 l/m 7,1 km/h N 11,1 C 14,2 C 23,7 km/h
14.06.2018 06:00 14,7 C 78 % 1011,8 hPa 0,0 l/m 8,2 km/h N 10,9 C 13,6 C 24,9 km/h
14.06.2018 07:00 14,7 C 77 % 1012,2 hPa 0,0 l/m 9,1 km/h N 10,6 C 13,2 C 25,3 km/h
14.06.2018 08:00 14,7 C 76 % 1012,7 hPa 0,0 l/m 9,5 km/h N 10,6 C 13,1 C 28,2 km/h
14.06.2018 09:00 14,8 C 77 % 1012,9 hPa 0,0 l/m 10,3 km/h N 10,8 C 12,8 C 26,5 km/h
14.06.2018 10:00 15,3 C 75 % 1013,2 hPa 0,0 l/m 10,3 km/h N 10,9 C 13,4 C 28,2 km/h
14.06.2018 11:00 16,1 C 73 % 1013,3 hPa 0,0 l/m 10,1 km/h N 11,1 C 14,3 C 28,6 km/h
14.06.2018 12:00 16,2 C 71 % 1013,5 hPa 0,0 l/m 10,1 km/h N 10,9 C 14,4 C 27,8 km/h
14.06.2018 13:00 16,8 C 70 % 1013,3 hPa 0,0 l/m 10,6 km/h N 11,2 C 14,9 C 30,6 km/h
14.06.2018 14:00 17,5 C 69 % 1013,0 hPa 0,0 l/m 10,8 km/h N 11,6 C 15,5 C 29,8 km/h
14.06.2018 15:00 18,3 C 67 % 1012,6 hPa 0,0 l/m 8,3 km/h N 12,0 C 17,4 C 26,5 km/h
14.06.2018 16:00 18,2 C 66 % 1012,3 hPa 0,0 l/m 8,2 km/h N 11,8 C 17,4 C 25,8 km/h
14.06.2018 17:00 18,4 C 66 % 1012,2 hPa 0,0 l/m 8,1 km/h N 12,0 C 17,6 C 22,5 km/h
14.06.2018 18:00 18,6 C 64 % 1012,2 hPa 0,0 l/m 9,2 km/h N 11,7 C 17,4 C 26,6 km/h
14.06.2018 19:00 17,9 C 67 % 1012,5 hPa 0,0 l/m 8,9 km/h N 11,6 C 16,8 C 23,7 km/h
14.06.2018 20:00 17,5 C 68 % 1012,8 hPa 0,0 l/m 10,1 km/h N 11,4 C 15,8 C 26,1 km/h
14.06.2018 21:00 17,1 C 69 % 1013,3 hPa 0,0 l/m 10,1 km/h N 11,4 C 15,4 C 26,5 km/h
14.06.2018 22:00 16,8 C 69 % 1013,5 hPa 0,0 l/m 9,3 km/h N 11,0 C 15,4 C 27,4 km/h
14.06.2018 23:00 16,5 C 70 % 1013,9 hPa 0,0 l/m 8,3 km/h N 11,0 C 15,5 C 22,5 km/h
15.06.2018 00:00 16,3 C 70 % 1014,1 hPa 0,0 l/m 9,1 km/h N 10,8 C 14,9 C 26,2 km/h
15.06.2018 01:00 16,1 C 70 % 1013,9 hPa 0,0 l/m 10,9 km/h N 10,6 C 14,0 C 27,4 km/h
15.06.2018 02:00 16,1 C 71 % 1014,1 hPa 0,0 l/m 7,7 km/h N 10,7 C 15,1 C 23,7 km/h
15.06.2018 03:00 15,9 C 71 % 1014,0 hPa 0,0 l/m 7,1 km/h N 10,6 C 15,5 C 22,5 km/h
15.06.2018 04:00 15,8 C 71 % 1014,1 hPa 0,0 l/m 7,7 km/h N 10,5 C 15,2 C 23,3 km/h
15.06.2018 05:00 15,8 C 69 % 1014,2 hPa 0,0 l/m 6,9 km/h N 10,1 C 15,5 C 20,5 km/h
15.06.2018 06:00 15,9 C 69 % 1014,4 hPa 0,0 l/m 4,4 km/h N 10,2 C 15,9 C 17,7 km/h
15.06.2018 07:00 16,2 C 68 % 1014,6 hPa 0,0 l/m 7,6 km/h N 10,3 C 15,5 C 20,1 km/h
15.06.2018 08:00 16,8 C 68 % 1014,9 hPa 0,0 l/m 6,3 km/h N 10,7 C 16,5 C 18,9 km/h
15.06.2018 09:00 17,2 C 67 % 1014,9 hPa 0,0 l/m 5,6 km/h N 11,1 C 17,2 C 18,1 km/h
15.06.2018 10:00 17,5 C 67 % 1014,8 hPa 0,0 l/m 3,5 km/h N 11,3 C 17,5 C 14,1 km/h
15.06.2018 11:00 18,0 C 63 % 1014,8 hPa 0,0 l/m 1,9 km/h N 10,8 C 18,0 C 12,1 km/h
15.06.2018 12:00 19,1 C 61 % 1014,6 hPa 0,0 l/m 5,7 km/h N 11,4 C 18,8 C 19,3 km/h
15.06.2018 13:00 20,3 C 53 % 1014,4 hPa 0,0 l/m 8,6 km/h N 10,3 C 19,4 C 26,1 km/h
15.06.2018 14:00 20,5 C 55 % 1014,2 hPa 0,0 l/m 8,2 km/h N 11,2 C 19,8 C 24,9 km/h
15.06.2018 15:00 20,6 C 55 % 1014,1 hPa 0,0 l/m 7,2 km/h N 11,1 C 20,2 C 22,9 km/h
15.06.2018 16:00 21,2 C 55 % 1013,7 hPa 0,0 l/m 7,3 km/h N 11,9 C 20,8 C 23,3 km/h
15.06.2018 17:00 21,9 C 53 % 1013,3 hPa 0,0 l/m 6,8 km/h N 11,8 C 21,6 C 20,5 km/h
15.06.2018 18:00 22,5 C 51 % 1013,1 hPa 0,0 l/m 6,5 km/h N 11,9 C 22,4 C 20,9 km/h
15.06.2018 19:00 22,3 C 54 % 1013,0 hPa 0,0 l/m 6,4 km/h N 12,6 C 22,1 C 18,1 km/h
15.06.2018 20:00 21,1 C 57 % 1013,3 hPa 0,0 l/m 5,0 km/h N 12,2 C 21,0 C 20,1 km/h
15.06.2018 21:00 20,3 C 58 % 1013,6 hPa 0,0 l/m 5,2 km/h N 11,6 C 20,2 C 15,3 km/h
15.06.2018 22:00 20,3 C 57 % 1013,9 hPa 0,0 l/m 5,8 km/h N 11,5 C 20,3 C 16,5 km/h
15.06.2018 23:00 20,1 C 58 % 1014,2 hPa 0,0 l/m 3,3 km/h N 11,4 C 20,1 C 13,3 km/h
16.06.2018 00:00 19,9 C 58 % 1014,3 hPa 0,0 l/m 3,1 km/h N 11,5 C 19,9 C 12,5 km/h
16.06.2018 01:00 20,0 C 59 % 1014,1 hPa 0,0 l/m 2,0 km/h N 11,6 C 20,0 C 9,7 km/h
16.06.2018 02:00 19,8 C 59 % 1013,9 hPa 0,0 l/m 3,3 km/h N 11,6 C 19,8 C 12,5 km/h
16.06.2018 03:00 19,4 C 61 % 1013,6 hPa 0,0 l/m 3,6 km/h N 11,6 C 19,4 C 13,3 km/h
16.06.2018 04:00 18,7 C 63 % 1013,4 hPa 0,0 l/m 2,5 km/h N 11,5 C 18,7 C 12,5 km/h
16.06.2018 05:00 18,4 C 65 % 1013,6 hPa 0,0 l/m 2,8 km/h N 11,7 C 18,4 C 13,3 km/h
16.06.2018 06:00 18,7 C 65 % 1013,7 hPa 0,0 l/m 4,0 km/h N 12,0 C 18,7 C 16,1 km/h
16.06.2018 07:00 19,0 C 65 % 1013,9 hPa 0,0 l/m 4,4 km/h N 12,2 C 19,0 C 15,7 km/h
16.06.2018 08:00 19,9 C 65 % 1014,0 hPa 0,0 l/m 5,3 km/h N 13,1 C 19,9 C 17,3 km/h
16.06.2018 09:00 21,6 C 63 % 1013,7 hPa 0,0 l/m 6,4 km/h N 14,1 C 21,5 C 16,5 km/h
16.06.2018 10:00 23,0 C 59 % 1013,3 hPa 0,0 l/m 6,3 km/h N 14,6 C 22,9 C 17,7 km/h
16.06.2018 11:00 24,5 C 56 % 1013,1 hPa 0,0 l/m 4,9 km/h N 15,1 C 24,5 C 16,5 km/h
16.06.2018 12:00 25,1 C 52 % 1012,9 hPa 0,0 l/m 2,8 km/h N 14,4 C 25,1 C 13,3 km/h
16.06.2018 13:00 24,9 C 50 % 1012,6 hPa 0,0 l/m 2,8 km/h N 13,7 C 24,9 C 10,8 km/h
16.06.2018 14:00 23,9 C 54 % 1012,6 hPa 0,0 l/m 2,8 km/h N 13,8 C 23,9 C 10,9 km/h
16.06.2018 15:00 23,6 C 56 % 1012,6 hPa 0,0 l/m 3,1 km/h N 14,2 C 23,6 C 10,9 km/h
16.06.2018 16:00 24,0 C 59 % 1012,5 hPa 0,0 l/m 4,0 km/h N 15,4 C 24,0 C 13,3 km/h
16.06.2018 17:00 23,7 C 59 % 1012,3 hPa 0,0 l/m 5,4 km/h N 15,1 C 23,6 C 15,7 km/h
16.06.2018 18:00 23,6 C 57 % 1012,0 hPa 0,0 l/m 5,1 km/h N 14,5 C 23,5 C 15,3 km/h
16.06.2018 19:00 23,1 C 57 % 1012,0 hPa 0,0 l/m 4,6 km/h N 14,2 C 23,1 C 14,1 km/h
16.06.2018 20:00 22,7 C 57 % 1012,2 hPa 0,0 l/m 3,8 km/h N 13,7 C 22,7 C 13,3 km/h
16.06.2018 21:00 22,1 C 57 % 1012,5 hPa 0,0 l/m 2,8 km/h N 13,3 C 22,1 C 9,3 km/h
16.06.2018 22:00 21,3 C 59 % 1012,8 hPa 0,0 l/m 0,8 km/h N 13,0 C 21,3 C 6,0 km/h
16.06.2018 23:00 20,5 C 62 % 1013,1 hPa 0,0 l/m 1,1 km/h N 12,8 C 20,5 C 5,6 km/h
17.06.2018 00:00 19,9 C 64 % 1013,1 hPa 0,0 l/m 0,6 km/h N 12,8 C 19,9 C 3,6 km/h
17.06.2018 01:00 18,5 C 68 % 1013,2 hPa 0,0 l/m 0,0 km/h N 12,5 C 18,5 C 0,0 km/h
17.06.2018 02:00 17,8 C 72 % 1013,1 hPa 0,0 l/m 1,1 km/h N 12,6 C 17,8 C 5,2 km/h
17.06.2018 03:00 19,4 C 67 % 1012,8 hPa 0,0 l/m 3,0 km/h N 13,0 C 19,4 C 8,4 km/h
17.06.2018 04:00 19,5 C 66 % 1012,7 hPa 0,0 l/m 3,3 km/h N 12,9 C 19,5 C 10,1 km/h
17.06.2018 05:00 19,4 C 67 % 1012,8 hPa 0,0 l/m 1,1 km/h N 12,9 C 19,4 C 7,2 km/h
17.06.2018 06:00 19,6 C 67 % 1013,0 hPa 0,0 l/m 2,3 km/h N 13,4 C 19,6 C 7,6 km/h
17.06.2018 07:00 20,8 C 64 % 1013,4 hPa 0,0 l/m 4,7 km/h N 13,8 C 20,8 C 13,3 km/h
17.06.2018 08:00 22,2 C 61 % 1013,6 hPa 0,0 l/m 6,0 km/h N 14,3 C 22,1 C 19,3 km/h
17.06.2018 09:00 23,4 C 59 % 1013,8 hPa 0,0 l/m 7,1 km/h N 15,0 C 23,2 C 19,3 km/h
17.06.2018 10:00 24,6 C 57 % 1013,7 hPa 0,0 l/m 6,8 km/h N 15,5 C 24,5 C 20,1 km/h
17.06.2018 11:00 25,9 C 52 % 1013,3 hPa 0,0 l/m 8,8 km/h N 15,1 C 25,4 C 24,1 km/h
17.06.2018 12:00 26,8 C 49 % 1013,0 hPa 0,0 l/m 7,6 km/h N 15,1 C 26,5 C 25,3 km/h
17.06.2018 13:00 27,5 C 46 % 1012,7 hPa 0,0 l/m 7,3 km/h N 14,8 C 27,3 C 21,7 km/h
17.06.2018 14:00 27,8 C 44 % 1012,6 hPa 0,0 l/m 7,4 km/h N 14,5 C 27,7 C 21,7 km/h
17.06.2018 15:00 26,9 C 47 % 1012,6 hPa 0,0 l/m 8,6 km/h N 14,6 C 26,5 C 26,1 km/h
17.06.2018 16:00 25,6 C 51 % 1012,7 hPa 0,0 l/m 5,1 km/h N 14,7 C 25,5 C 18,5 km/h
17.06.2018 17:00 25,1 C 51 % 1012,4 hPa 0,0 l/m 4,6 km/h N 14,3 C 25,1 C 16,5 km/h
17.06.2018 18:00 25,0 C 52 % 1012,3 hPa 0,0 l/m 3,1 km/h N 14,4 C 25,0 C 12,9 km/h
17.06.2018 19:00 24,8 C 51 % 1012,3 hPa 0,0 l/m 4,7 km/h N 13,8 C 24,8 C 16,1 km/h
17.06.2018 20:00 24,5 C 52 % 1012,5 hPa 0,0 l/m 3,8 km/h N 13,9 C 24,5 C 13,7 km/h
17.06.2018 21:00 24,0 C 54 % 1013,0 hPa 0,0 l/m 2,1 km/h N 14,0 C 24,0 C 8,0 km/h
17.06.2018 22:00 23,5 C 54 % 1013,3 hPa 0,0 l/m 2,3 km/h N 13,6 C 23,5 C 8,9 km/h
17.06.2018 23:00 23,0 C 56 % 1013,7 hPa 0,0 l/m 9,8 km/h N 13,7 C 22,0 C 27,0 km/h
Min-Datum _ 14.06.18 17.06.18 12.06.18 - 11.06.18 - 15.06.18 14.06.18 11.06.18
_ Min-Zeit 05:45 14:15 03:45 - 00:00 - 13:45 09:30 00:00
Minimum _ 14,5 C 44 % 1002,5 hPa - 0,0 km/h - 10,0 C 12,4 C 0,0 km/h
Max-Datum _ 11.06.18 13.06.18 15.06.18 12.06.18 12.06.18 - 11.06.18 11.06.18 12.06.18
_ Max-Zeit 14:15 01:00 08:30 20:30 08:45 - 11:30 14:00 08:30
Maximum _ 30,9 C 83 % 1015,0 hPa 5,7 l/m 18,9 km/h
N
- 19,8 C 30,7 C 40,2 km/h
N
Durchschnitt _ 21,0 C 67 % 1010,0 hPa #13,8 l/m 4,5 km/h N 14,2 C 20,6 C 14,8 km/h